DLH2HK EDDV-LFML
Flight info
| Callsign | DLH2HK |
|---|---|
| Flight time | N/A |
| Altitude | 36000 |
| Route | VAXEV2Y VAXEV Y347 WEZTE DCT LIRSU DCT LIMGO/N0458F350 N852 SUTAL DCT GTQ DCT POGOL DCT LASAT DCT MOROK DCT GILIR DCT GEVEA DCT INCUS DCT BALSI |
| Aircraft | A320/M-SDE3FGHIRWY/LB1 |
Departure
| Time | 2026-05-06 09:11 |
|---|---|
| Airport | Hannover Airport (EDDV) |
Arrival
| Time | N/A |
|---|---|
| Airport | Marseille Provence Airport (LFML) |
| Time | Latitude | Longitude | Altitude | Speed | Heading |
|---|---|---|---|---|---|
| 2026-05-06 08:42 | 52.45770 | 9.69581 | 179 ft | 0 kts | 52° |
| 2026-05-06 09:03 | 52.45760 | 9.69559 | 178 ft | 4 kts | 52° |
| 2026-05-06 09:03 | 52.45744 | 9.69525 | 178 ft | 2 kts | 52° |
| 2026-05-06 09:03 | 52.45732 | 9.69496 | 178 ft | 4 kts | 81° |
| 2026-05-06 09:04 | 52.45737 | 9.69464 | 178 ft | 3 kts | 139° |
| 2026-05-06 09:04 | 52.45744 | 9.69454 | 178 ft | 0 kts | 139° |
| 2026-05-06 09:07 | 52.45741 | 9.69452 | 178 ft | 1 kts | 177° |
| 2026-05-06 09:07 | 52.45747 | 9.69417 | 178 ft | 6 kts | 293° |
| 2026-05-06 09:07 | 52.45757 | 9.69355 | 178 ft | 5 kts | 277° |
| 2026-05-06 09:07 | 52.45761 | 9.69265 | 178 ft | 8 kts | 272° |
| 2026-05-06 09:08 | 52.45714 | 9.69152 | 178 ft | 15 kts | 195° |
| 2026-05-06 09:08 | 52.45631 | 9.69103 | 178 ft | 13 kts | 239° |
| 2026-05-06 09:08 | 52.45629 | 9.68931 | 178 ft | 16 kts | 272° |
| 2026-05-06 09:08 | 52.45632 | 9.68763 | 179 ft | 16 kts | 272° |
| 2026-05-06 09:09 | 52.45639 | 9.68528 | 179 ft | 22 kts | 272° |
| 2026-05-06 09:09 | 52.45646 | 9.68276 | 179 ft | 22 kts | 272° |
| 2026-05-06 09:09 | 52.45653 | 9.68023 | 179 ft | 22 kts | 273° |
| 2026-05-06 09:09 | 52.45652 | 9.67799 | 179 ft | 16 kts | 255° |
| 2026-05-06 09:10 | 52.45579 | 9.67702 | 180 ft | 13 kts | 189° |
| 2026-05-06 09:10 | 52.45519 | 9.67725 | 183 ft | 6 kts | 140° |
| 2026-05-06 09:10 | 52.45492 | 9.67845 | 183 ft | 16 kts | 92° |
| 2026-05-06 09:10 | 52.45482 | 9.68284 | 181 ft | 73 kts | 92° |
| 2026-05-06 09:11 | 52.45451 | 9.69468 | 185 ft | 132 kts | 92° |
| 2026-05-06 09:11 | 52.45409 | 9.71135 | 577 ft | 150 kts | 92° |
| 2026-05-06 09:11 | 52.45349 | 9.72848 | 1332 ft | 150 kts | 91° |
| 2026-05-06 09:11 | 52.45297 | 9.74628 | 1717 ft | 166 kts | 88° |
| 2026-05-06 09:12 | 52.45702 | 9.76485 | 1937 ft | 189 kts | 50° |
| 2026-05-06 09:12 | 52.46890 | 9.77545 | 2534 ft | 207 kts | 13° |
| 2026-05-06 09:12 | 52.48374 | 9.77382 | 3182 ft | 219 kts | 356° |
| 2026-05-06 09:12 | 52.49859 | 9.76675 | 3869 ft | 230 kts | 331° |
| 2026-05-06 09:13 | 52.51017 | 9.74784 | 4396 ft | 248 kts | 300° |
| 2026-05-06 09:13 | 52.51837 | 9.72136 | 4747 ft | 271 kts | 297° |
| 2026-05-06 09:13 | 52.52689 | 9.69315 | 5427 ft | 279 kts | 297° |
| 2026-05-06 09:13 | 52.53563 | 9.66434 | 6212 ft | 284 kts | 297° |
| 2026-05-06 09:14 | 52.54459 | 9.63515 | 6972 ft | 288 kts | 297° |
| 2026-05-06 09:14 | 52.55370 | 9.60569 | 7765 ft | 291 kts | 296° |
| 2026-05-06 09:14 | 52.56294 | 9.57591 | 8547 ft | 294 kts | 295° |
| 2026-05-06 09:14 | 52.57225 | 9.54582 | 9323 ft | 297 kts | 295° |
| 2026-05-06 09:15 | 52.58162 | 9.51544 | 10068 ft | 301 kts | 295° |
| 2026-05-06 09:15 | 52.59141 | 9.48360 | 10304 ft | 323 kts | 294° |
| 2026-05-06 09:15 | 52.59948 | 9.44794 | 10462 ft | 344 kts | 280° |
| 2026-05-06 09:15 | 52.60168 | 9.40787 | 10603 ft | 361 kts | 264° |
| 2026-05-06 09:16 | 52.59664 | 9.36714 | 11067 ft | 366 kts | 248° |
| 2026-05-06 09:16 | 52.58487 | 9.33009 | 11684 ft | 367 kts | 232° |
| 2026-05-06 09:16 | 52.56733 | 9.29976 | 12358 ft | 367 kts | 217° |
| 2026-05-06 09:16 | 52.54694 | 9.27416 | 13038 ft | 371 kts | 216° |
| 2026-05-06 09:17 | 52.52624 | 9.24850 | 13702 ft | 374 kts | 216° |
| 2026-05-06 09:17 | 52.51244 | 9.23146 | 14075 ft | 376 kts | 216° |
| 2026-05-06 09:17 | 52.49144 | 9.20562 | 14638 ft | 379 kts | 216° |
| 2026-05-06 09:17 | 52.47033 | 9.17955 | 15189 ft | 381 kts | 216° |
| 2026-05-06 09:18 | 52.44922 | 9.15298 | 15746 ft | 384 kts | 217° |
| 2026-05-06 09:18 | 52.42802 | 9.12600 | 16311 ft | 387 kts | 217° |
| 2026-05-06 09:18 | 52.40669 | 9.09877 | 16882 ft | 390 kts | 217° |
| 2026-05-06 09:18 | 52.38531 | 9.07147 | 17474 ft | 391 kts | 217° |
| 2026-05-06 09:19 | 52.36378 | 9.04403 | 17996 ft | 393 kts | 217° |
| 2026-05-06 09:19 | 52.34210 | 9.01648 | 18439 ft | 396 kts | 217° |
| 2026-05-06 09:19 | 52.32024 | 8.98884 | 18873 ft | 399 kts | 217° |
| 2026-05-06 09:19 | 52.29817 | 8.96103 | 19309 ft | 402 kts | 217° |
| 2026-05-06 09:20 | 52.27598 | 8.93312 | 19737 ft | 404 kts | 217° |
| 2026-05-06 09:20 | 52.25357 | 8.90502 | 20158 ft | 408 kts | 217° |
| 2026-05-06 09:20 | 52.23099 | 8.87674 | 20550 ft | 411 kts | 217° |
| 2026-05-06 09:20 | 52.20821 | 8.84821 | 20975 ft | 414 kts | 217° |
| 2026-05-06 09:21 | 52.18533 | 8.81954 | 21403 ft | 417 kts | 217° |
| 2026-05-06 09:21 | 52.16229 | 8.79070 | 21838 ft | 419 kts | 217° |
| 2026-05-06 09:21 | 52.13910 | 8.76168 | 22243 ft | 421 kts | 217° |
| 2026-05-06 09:21 | 52.11577 | 8.73254 | 22608 ft | 424 kts | 217° |
| 2026-05-06 09:22 | 52.09229 | 8.70328 | 22969 ft | 426 kts | 217° |
| 2026-05-06 09:22 | 52.06866 | 8.67390 | 23328 ft | 429 kts | 217° |
| 2026-05-06 09:22 | 52.04487 | 8.64438 | 23641 ft | 431 kts | 216° |
| 2026-05-06 09:22 | 52.02097 | 8.61472 | 23943 ft | 434 kts | 216° |
| 2026-05-06 09:23 | 51.99728 | 8.58534 | 24246 ft | 436 kts | 216° |
| 2026-05-06 09:23 | 51.97310 | 8.55537 | 24543 ft | 438 kts | 216° |
| 2026-05-06 09:23 | 51.94882 | 8.52530 | 24831 ft | 441 kts | 217° |
| 2026-05-06 09:23 | 51.92439 | 8.49509 | 25148 ft | 443 kts | 216° |
| 2026-05-06 09:24 | 51.89979 | 8.46476 | 25484 ft | 446 kts | 216° |
| 2026-05-06 09:24 | 51.87503 | 8.43435 | 25819 ft | 448 kts | 216° |
| 2026-05-06 09:24 | 51.85016 | 8.40383 | 26105 ft | 450 kts | 216° |
| 2026-05-06 09:24 | 51.82517 | 8.37319 | 26389 ft | 452 kts | 216° |
| 2026-05-06 09:25 | 51.80008 | 8.34247 | 26656 ft | 453 kts | 216° |
| 2026-05-06 09:25 | 51.77488 | 8.31165 | 26904 ft | 455 kts | 216° |
| 2026-05-06 09:25 | 51.74961 | 8.28079 | 27234 ft | 455 kts | 216° |
| 2026-05-06 09:25 | 51.72436 | 8.25001 | 27617 ft | 454 kts | 216° |
| 2026-05-06 09:26 | 51.69908 | 8.21925 | 27888 ft | 456 kts | 216° |
| 2026-05-06 09:26 | 51.67375 | 8.18848 | 28203 ft | 456 kts | 216° |
| 2026-05-06 09:26 | 51.64841 | 8.15776 | 28590 ft | 456 kts | 216° |
| 2026-05-06 09:26 | 51.62310 | 8.12711 | 29002 ft | 455 kts | 216° |
| 2026-05-06 09:27 | 51.59783 | 8.09652 | 29391 ft | 454 kts | 216° |
| 2026-05-06 09:27 | 51.57260 | 8.06600 | 29777 ft | 453 kts | 216° |
| 2026-05-06 09:27 | 51.54745 | 8.03555 | 30105 ft | 452 kts | 216° |
| 2026-05-06 09:27 | 51.52235 | 8.00519 | 30425 ft | 451 kts | 216° |
| 2026-05-06 09:28 | 51.49723 | 7.97489 | 30717 ft | 451 kts | 216° |
| 2026-05-06 09:28 | 51.47218 | 7.94478 | 31042 ft | 450 kts | 216° |
| 2026-05-06 09:28 | 51.44717 | 7.91475 | 31403 ft | 448 kts | 216° |
| 2026-05-06 09:28 | 51.42230 | 7.88491 | 31799 ft | 445 kts | 216° |
| 2026-05-06 09:29 | 51.39755 | 7.85525 | 32172 ft | 443 kts | 216° |
| 2026-05-06 09:29 | 51.37295 | 7.82582 | 32555 ft | 440 kts | 216° |
| 2026-05-06 09:29 | 51.34845 | 7.79660 | 32925 ft | 438 kts | 216° |
| 2026-05-06 09:29 | 51.32409 | 7.76760 | 33288 ft | 436 kts | 216° |
| 2026-05-06 09:30 | 51.29983 | 7.73873 | 33674 ft | 433 kts | 216° |
| 2026-05-06 09:30 | 51.27575 | 7.71014 | 34036 ft | 430 kts | 216° |
| 2026-05-06 09:30 | 51.25177 | 7.68164 | 34360 ft | 429 kts | 216° |
| 2026-05-06 09:30 | 51.22787 | 7.65322 | 34648 ft | 428 kts | 216° |
| 2026-05-06 09:31 | 51.20396 | 7.62486 | 34907 ft | 428 kts | 216° |
| 2026-05-06 09:31 | 51.18005 | 7.59660 | 35114 ft | 428 kts | 216° |
| 2026-05-06 09:31 | 51.15607 | 7.56832 | 35303 ft | 429 kts | 216° |
| 2026-05-06 09:31 | 51.13211 | 7.54007 | 35508 ft | 429 kts | 216° |
| 2026-05-06 09:32 | 51.10812 | 7.51179 | 35700 ft | 429 kts | 216° |
| 2026-05-06 09:32 | 51.05994 | 7.45507 | 35787 ft | 432 kts | 216° |
| 2026-05-06 09:33 | 51.01153 | 7.39830 | 35800 ft | 433 kts | 216° |
| 2026-05-06 09:33 | 50.96304 | 7.34162 | 35803 ft | 433 kts | 216° |
| 2026-05-06 09:34 | 50.91456 | 7.28505 | 35809 ft | 433 kts | 216° |
| 2026-05-06 09:34 | 50.86609 | 7.22859 | 35811 ft | 433 kts | 216° |
| 2026-05-06 09:35 | 50.81754 | 7.17224 | 35812 ft | 433 kts | 216° |
| 2026-05-06 09:35 | 50.76826 | 7.11535 | 35809 ft | 433 kts | 216° |
| 2026-05-06 09:36 | 50.71962 | 7.05935 | 35804 ft | 433 kts | 216° |
| 2026-05-06 09:36 | 50.67105 | 7.00327 | 35817 ft | 433 kts | 216° |
| 2026-05-06 09:37 | 50.62240 | 6.94725 | 35780 ft | 433 kts | 216° |
| 2026-05-06 09:37 | 50.57360 | 6.89139 | 35782 ft | 434 kts | 216° |